• Join FlightAware (Why Join?)
  • Login
  • US Flag 
12:15PM EST


 

Airport Tracker/Info


-or-


 

Live Flight TrackerFlight Track Log ✈ N329JB ✈ 09-Apr-2013 ✈ KHPN - KPBI

Flight Track Log - Related Links

Times and Time Zones

All times are in EDT time to prevent confusion due to time zone crossing. See the N329JB flight status page for this flight to view local times or setup timezone preferences in your user account.

Time Position Orientation Groundspeed Altitude Reporting Facility
EDT Latitude Longitude Course Direction KTS MPH feet Rate Location/Type
03:48PM 41.0833 -73.7333 201° Southwest 150 173 1,900  Level New York TRACON
03:49PM 41.1000 -73.8167 285° West 206 237 3,900 1,020 Climbing New York TRACON
03:50PM 40.7479 -73.8597 205° Southwest  Level FlightAware Approximate
03:50PM 41.0833 -73.9000 255° West 262 302 4,000  Level New York TRACON
03:51PM 40.6420 -73.9184 199° South  Level FlightAware Approximate
03:51PM 41.0333 -73.9500 217° Southwest 259 298 5,100  Level New York TRACON
03:52PM 40.5330 -73.9668 201° Southwest  Level FlightAware Approximate
03:52PM 40.9500 -73.9833 197° South 298 343 8,500  Level New York TRACON
03:53PM 40.4268 -74.0200 201° Southwest  Level FlightAware Approximate
03:53PM 40.8833 -73.9167 143° Southeast 332 382 11,200  Level New York TRACON
03:54PM 40.7833 -73.9500 194° South 353 406 12,000 360 Climbing New York TRACON
03:55PM 40.7167 -74.0167 217° Southwest 342 394 12,000  Level New York TRACON
03:56PM 40.6333 -74.0833 211° Southwest 336 387 12,000 1,500 Level New York TRACON
03:58PM 40.4672 -74.1619 200° South 351 404 16,600 1,680 Climbing New York Center
03:59PM 40.3706 -74.1817 189° South 377 434 17,000 1,020 Climbing New York Center
04:00PM 40.2636 -74.2036 189° South 396 456 18,700 1,560 Climbing New York Center
04:01PM 40.1422 -74.2275 189° South 396 456 20,200 1,740 Climbing New York Center
04:02PM 40.0122 -74.2561 190° South 412 474 22,700 1,680 Climbing Washington Center
04:03PM 39.9153 -74.3364 212° Southwest 412 474 24,000 1,080 Climbing Washington Center
04:04PM 39.8203 -74.4325 218° Southwest 418 481 24,900 1,380 Climbing Washington Center
04:05PM 39.7358 -74.5392 224° Southwest 429 494 26,800 1,860 Climbing Washington Center
04:06PM 39.6453 -74.6564 225° Southwest 429 494 28,700 1,560 Climbing Washington Center
04:07PM 39.5628 -74.7653 226° Southwest 429 494 30,000 1,500 Climbing Washington Center
04:08PM 39.4822 -74.8736 226° Southwest 429 494 31,700 1,740 Climbing Washington Center
04:09PM 39.4036 -74.9764 225° Southwest 424 488 33,500 1,260 Climbing Washington Center
04:10PM 39.3247 -75.0792 225° Southwest 414 476 34,300 900 Climbing Washington Center
04:11PM 39.2208 -75.1469 207° Southwest 414 476 35,400 840 Climbing Washington Center
04:12PM 39.1044 -75.1983 199° South 414 476 36,000 300 Climbing Washington Center
04:13PM 38.9836 -75.2444 197° South 445 512 36,000  Level Washington Center
04:14PM 38.8650 -75.3011 200° South 457 526 36,000  Level Washington Center
04:15PM 38.7419 -75.3522 198° South 462 532 36,000  Level Washington Center
04:16PM 38.6211 -75.3950 195° South 457 526 36,000  Level Washington Center
04:17PM 38.5003 -75.4483 199° South 457 526 36,000  Level Washington Center
04:18PM 38.3794 -75.4989 198° South 462 532 36,000  Level Washington Center
04:19PM 38.2753 -75.5519 202° Southwest 457 526 36,000  Level Washington Center
04:20PM 38.1628 -75.6208 206° Southwest 452 520 36,000  Level Washington Center
04:21PM 38.0522 -75.6919 207° Southwest 446 513 36,000  Level Washington Center
04:22PM 37.9331 -75.7733 208° Southwest 446 513 36,000  Level Washington Center
04:23PM 37.8289 -75.8311 204° Southwest 446 513 36,000  Level Washington Center
04:24PM 37.7097 -75.9119 208° Southwest 446 513 36,000  Level Washington Center
04:25PM 37.5989 -75.9797 206° Southwest 446 513 36,000  Level Washington Center
04:26PM 37.4883 -76.0472 206° Southwest 446 513 36,000  Level Washington Center
04:27PM 37.3775 -76.1144 206° Southwest 446 513 36,000  Level Washington Center
04:28PM 37.2728 -76.1714 203° Southwest 446 513 36,000  Level Washington Center
04:29PM 37.1619 -76.2408 207° Southwest 446 513 36,000  Level Washington Center
04:30PM 37.0489 -76.3100 206° Southwest 446 513 36,000  Level Washington Center
04:31PM 36.9358 -76.3767 205° Southwest 446 513 36,000  Level Washington Center
04:32PM 36.8228 -76.4431 205° Southwest 446 513 36,000  Level Washington Center
04:33PM 36.7097 -76.5092 205° Southwest 446 513 36,000  Level Washington Center
04:34PM 36.5922 -76.5647 201° Southwest 451 519 36,000  Level Washington Center
04:35PM 36.4750 -76.6147 199° South 451 519 36,000  Level Washington Center
04:36PM 36.3556 -76.6675 200° South 451 519 36,000  Level Washington Center
04:37PM 36.2342 -76.7197 199° South 451 519 36,000  Level Washington Center
04:38PM 36.1147 -76.7747 200° South 451 519 36,000  Level Washington Center
04:39PM 35.9972 -76.8294 201° Southwest 456 525 36,000  Level Washington Center
04:40PM 35.8758 -76.8814 199° South 456 525 36,000  Level Washington Center
04:41PM 35.7583 -76.9333 200° South 456 525 36,000  Level Washington Center
04:42PM 35.6306 -76.9900 200° South 445 512 36,000  Level Washington Center
04:43PM 35.5089 -77.0439 200° South 451 519 36,000  Level Washington Center
04:44PM 35.3914 -77.0953 200° South 451 519 36,000  Level Washington Center
04:45PM 35.2739 -77.1492 201° Southwest 451 519 36,000  Level Washington Center
04:46PM 35.1542 -77.2000 199° South 451 519 36,000  Level Washington Center
04:47PM 35.0344 -77.2536 200° South 451 519 36,000  Level Washington Center
04:48PM 34.9192 -77.3019 199° South 446 513 36,000  Level Washington Center
04:49PM 34.8036 -77.3550 201° Southwest 451 519 36,000  Level Washington Center
04:50PM 34.6861 -77.4031 199° South 451 519 36,000  Level Washington Center
04:51PM 34.5706 -77.4536 200° South 451 519 36,000  Level Washington Center
04:52PM 34.4467 -77.4933 195° South 451 519 36,000  Level Washington Center
04:53PM 34.3272 -77.5333 195° South 451 519 36,000  Level Washington Center
04:54PM 34.2056 -77.5708 194° South 451 519 36,000  Level Washington Center
04:55PM 34.0817 -77.6103 195° South 451 519 36,000  Level Washington Center
04:55PM 34.0494 -77.6194 193° South 453 521 36,000  Level Jacksonville Center
04:56PM 33.9281 -77.6594 195° South 471 542 36,000  Level Jacksonville Center
04:57PM 33.8067 -77.6992 195° South 466 536 36,000  Level Jacksonville Center
04:58PM 33.6872 -77.7361 194° South 460 529 36,000  Level Jacksonville Center
04:59PM 33.5658 -77.7756 195° South 455 524 36,000  Level Jacksonville Center
05:00PM 33.4464 -77.8147 195° South 450 518 36,000  Level Jacksonville Center
05:01PM 33.3247 -77.8517 194° South 450 518 36,000  Level Jacksonville Center
05:02PM 33.2031 -77.8908 195° South 450 518 36,000  Level Jacksonville Center
05:03PM 33.0814 -77.9247 193° South 450 518 36,000  Level Jacksonville Center
05:04PM 32.9597 -77.9661 196° South 450 518 36,000  Level Jacksonville Center
05:05PM 32.8381 -78.0025 194° South 450 518 36,000  Level Jacksonville Center
05:06PM 32.7164 -78.0411 195° South 450 518 36,000  Level Jacksonville Center
05:07PM 32.5969 -78.0797 195° South 450 518 36,000  Level Jacksonville Center
05:08PM 32.4750 -78.1156 194° South 450 518 36,000  Level Jacksonville Center
05:09PM 32.3556 -78.1539 195° South 450 518 36,000  Level Jacksonville Center
05:10PM 32.2336 -78.1897 194° South 450 518 36,000  Level Jacksonville Center
05:11PM 32.1142 -78.2300 196° South 450 518 36,000  Level Jacksonville Center
05:12PM 31.9822 -78.2736 196° South 450 518 36,000  Level Jacksonville Center
05:13PM 31.8625 -78.3114 195° South 450 518 36,000  Level Jacksonville Center
05:14PM 31.7428 -78.3489 195° South 450 518 36,000  Level Jacksonville Center
05:15PM 31.6250 -78.3817 193° South 450 518 36,000  Level Jacksonville Center
05:16PM 31.5033 -78.4239 196° South 450 518 36,000  Level Jacksonville Center
05:17PM 31.4000 -78.4558 195° South 443 510 36,000  Level Jacksonville Center
05:18PM 31.2803 -78.4956 196° South 443 510 36,000  Level Jacksonville Center
05:19PM 31.1644 -78.5300 194° South 443 510 36,000  Level Jacksonville Center
05:20PM 31.0428 -78.5672 195° South 443 510 36,000  Level Jacksonville Center
05:21PM 30.9106 -78.6094 195° South 457 526 36,000  Level Jacksonville Center
05:22PM 30.7928 -78.6486 196° South 445 512 36,000  Level Jacksonville Center
05:24PM 30.6081 -78.7061 195° South 434 499 36,000  Level Miami Center
05:25PM 30.4931 -78.7472 197° South 436 502 36,000  Level Miami Center
05:26PM 30.3736 -78.7886 197° South 443 510 36,000  Level Miami Center
05:27PM 30.2606 -78.8297 197° South 449 517 36,000  Level Miami Center
05:28PM 30.1411 -78.8731 197° South 449 517 36,000  Level Miami Center
05:29PM 30.0153 -78.9258 200° South 440 506 36,000  Level Miami Center
05:30PM 29.9000 -78.9714 199° South 445 512 36,000  Level Miami Center
05:31PM 29.7806 -79.0050 194° South 450 518 36,000 -720 Level Miami Center
05:32PM 29.6572 -79.0264 189° South 445 512 34,600 -1,980 Descending Miami Center
05:33PM 29.5317 -79.0478 188° South 452 520 32,100 -1,320 Descending Miami Center
05:34PM 29.4083 -79.0714 189° South 457 526 32,000 -60 Descending Miami Center
05:35PM 29.2828 -79.0975 190° South 462 532 32,000  Level Miami Center
05:36PM 29.1553 -79.1164 187° South 462 532 32,000  Level Miami Center
05:37PM 29.0297 -79.1375 188° South 467 537 32,000  Level Miami Center
05:38PM 28.9042 -79.1608 189° South 467 537 32,000  Level Miami Center
05:39PM 28.7806 -79.1844 190° South 467 537 32,000  Level Miami Center
05:40PM 28.6550 -79.2056 188° South 462 532 32,000  Level Miami Center
05:41PM 28.5358 -79.2267 189° South 457 526 32,000 -300 Level Miami Center
05:42PM 28.4122 -79.2500 189° South 452 520 31,500 -1,500 Descending Miami Center
05:43PM 28.2886 -79.2733 189° South 452 520 29,100 -2,400 Descending Miami Center
05:44PM 28.1631 -79.2942 188° South 452 520 26,700 -2,400 Descending Miami Center
05:45PM 28.0500 -79.3153 189° South 447 514 24,400 -2,100 Descending Miami Center
05:46PM 27.9328 -79.3386 190° South 435 501 22,500 -1,500 Descending Miami Center
05:47PM 27.8381 -79.3811 202° Southwest 379 436 21,400 -1,080 Descending Miami Center
05:48PM 27.7556 -79.4428 213° Southwest 393 452 20,400 -1,140 Descending Miami Center
05:49PM 27.6519 -79.5153 212° Southwest 406 467 19,200 -1,500 Descending Miami Center
05:50PM 27.5608 -79.5789 212° Southwest 392 451 17,400 -1,980 Descending Miami Center
05:51PM 27.4742 -79.6400 212° Southwest 386 444 15,300 -2,040 Descending Miami Center
05:52PM 27.3958 -79.6967 213° Southwest 380 437 13,400 -1,800 Descending Miami Center
05:53PM 27.3175 -79.7508 212° Southwest 359 413 11,700 -1,800 Descending Miami Center
05:54PM 27.2369 -79.8072 212° Southwest 332 382 9,900 -1,800 Descending Miami Center
05:55PM 27.1692 -79.8567 213° Southwest 306 352 8,100 -960 Descending Miami Center
05:56PM 27.0992 -79.9017 210° Southwest 301 346 8,000 -840 Descending Miami Center
05:57PM 27.0339 -79.9372 206° Southwest 296 341 6,500 -1,440 Descending Miami Center
05:58PM 26.9703 -79.9728 206° Southwest 278 320 5,200 -1,260 Descending Miami Center
05:59PM 26.9086 -80.0225 216° Southwest 258 297 4,000 -600 Descending Miami Center
06:00PM 26.8556 -80.0675 217° Southwest 246 283 4,000  Level Miami Center
06:01PM 26.8064 -80.1150 221° Southwest 241 277 4,000  Level Miami Center
06:02PM 26.8031 -80.1778 267° West 216 249 4,000  Level Miami Center
06:04PM 26.6832 -80.0956 270° West  Level Estimated
06:11PM 26.6832 -80.0956 110° East  Level Estimated
06:12PM 26.6832 -80.0956 110° East  Level Estimated
06:13PM 26.6832 -80.0956 110° East  Level Estimated
06:14PM 26.6832 -80.0956 110° East  Level Estimated
06:15PM 26.6832 -80.0956 110° East  Level Estimated
06:16PM 26.6832 -80.0956 110° East  Level Estimated
06:17PM 26.6832 -80.0956 110° East  Level Estimated
06:18PM 26.6832 -80.0956 110° East  Level Estimated
06:19PM 26.6832 -80.0956 110° East  Level Estimated
06:20PM 26.6832 -80.0956 110° East  Level Estimated
06:21PM 26.6832 -80.0956 110° East  Level Estimated